Hauptseite
METAR-TAF:

METAR-TAF

Flughäfen :

George Best Belfast City Airport

Belfast City, Nordirland

Breite: 54-36N, Länge: 005-53W, Höhe: 5 m

Beobachtung

Neuester Wetterbericht von vor 38 Minuten, um 14:20 UTC
Wind 5 kt aus Ost/Südost, variierte zwischen Ost/Nordost und Süd/Südost
Temperatur 14°C
Luftfeuchtigkeit 77%
Luftdruck 1015 hPa
Sichtweite 10 km oder mehr
Leichtregen

METAR: EGAC 081420Z AUTO 12005KT 070V160 9999 -RA NCD 14/10 Q1015

Zeit: 15:58 (14:58 UTC)

Prognose

Neuester Wetterbericht von vor 23 Minuten, um 14:35 UTC
Gültige Prognose vom 08 um 14 UTC bis 08 um 18 UTC
Wind 8 kt aus Ost/Nordost
Sichtweite 10 km oder mehr
Aufgelockert bewölkt in der Höhe von 3000 ft
Zeitweise
vom 08 um 14 UTC bis 08 um 18 UTC
Sichtweite: 6000 m
Regen

TAF: EGAC 081435Z 0814/0818 07008KT 9999 SCT030 TEMPO 0814/0818 6000 RA

Wetterbeobachtungen und Prognosen von mehr als 4000 Flughäfen (METAR und TAF Bericht).

Die verfügbaren Stationen werden durch gelbe und rote Markierungen auf der Karte dargestellt.

Führen Sie die Maus auf sie, um den Namen der Station zu sehen.

Darauf klicken, um die Beobachtung von Wetterbeobachtungen und Prognosen zu sehen.

Um die Karte zu ändern : klicken Sie auf den grünen Tasten mit einem schwarzen Kreuz Zum Vergrößern, auf den grünen Button mit einem Gedankenstrich zu verkleinern, oder auf die grünen Pfeile für benachbarte Karten.


METAR-TAF: